Accueil
METAR-TAF:

METAR-TAF

Aéroports :

Milan, Italie

Aéroport de Milan-Linate

latitude: 45-26N, longitude: 009-17E, altitude: 107 m

Observation

Le bulletin a été fait il y a 17 minutes, à 19:20 UTC
Vent 5 kt de sud/sud-ouest
Température 2°C
Humidité 100%
Pression 1013 hPa
Visibilité: 0100 m
brouillard

METAR: LIML 121920Z 21005KT 0100 R36/0550N FG VV/// 02/02 Q1013 NOSIG

Heure: 20:37 (19:37 UTC)

Prévision

Le bulletin a été fait il y a 2 heures et 37 minutes, à 17:00 UTC
Prévision valable du 12 à 18 UTC au 13 à 18 UTC
Vent 5 kt de direction variable
Visibilité: 0500 m
brouillard
Temporairement
du 12 à 22 UTC au 13 à 08 UTC
Visibilité: 0200 m
Nuages fragmentés à une hauteur de 500 ft
brouillard givrant
Evoluant progressivement
du 13 à 09 UTC au 13 à 11 UTC
Visibilité: 4000 m
brume

TAF: LIML 121700Z 1218/1318 VRB05KT 0500 FG NSC TEMPO 1222/1308 0200 FZFG BKN005 BECMG 1309/1311 4000 BR

Observations et prévisions météorologiques de plus de 4000 aéroports (messages METAR et TAF).

Les stations disponibles sont représentées par des disques jaunes et rouges sur la carte.

Passer la souris dessus pour voir le nom de la station.

Cliquer dessus pour voir les observations et prévisions météorologiques.

Pour changer de carte: cliquez sur les boutons verts avec une croix noire pour zoomer, sur le bouton vert avec un tiret pour effectuer un zoom arrière, ou sur les flèches vertes pour les cartes adjacentes.


METAR-TAF: